Terminal Aerodrome Forecast
Issued by NWS

Home | Current Version | Previous Version | Text Only | Print | Product List | Glossary On
Versions: 1 2 3 4 5 6 7 8 9 10 11 12 13 14 15 16 17 18 19 20 21 22 23 24 25 26 27
000
FTUS46 KPDT 211412 AAB
TAFALW
TAF AMD
KALW 211412Z 2114/2212 22008KT 2SM -SHRA BR SCT002 BKN050
      TEMPO 2114/2117 1/4SM -SHRA FG BKN002
     FM211700 22008KT 6SM -SHRA BR FEW003 OVC020
     FM212100 23013G25KT P6SM -SHRA BKN020 OVC030
     FM220200 23012KT P6SM VCSH SCT025 OVC040
     FM220700 21009KT P6SM SCT040=

USA.gov is the U.S. government's official web portal to all federal, state and local government web resources and services.